createdAt,value
2019-05-14T00:00:53.372Z,1028.24
2019-05-14T00:01:52.251Z,1028.24
2019-05-14T00:02:52.194Z,1028.23
2019-05-14T00:03:52.017Z,1028.26
2019-05-14T00:04:52.019Z,1028.26
2019-05-14T00:05:51.996Z,1028.25
2019-05-14T00:06:52.106Z,1028.28
2019-05-14T00:07:52.323Z,1028.23
2019-05-14T00:08:52.331Z,1028.20
2019-05-14T00:10:52.259Z,1028.19
2019-05-14T00:11:51.710Z,1028.21
2019-05-14T00:12:51.769Z,1028.23
2019-05-14T00:13:52.220Z,1028.25
2019-05-14T00:15:52.237Z,1028.23
2019-05-14T00:16:51.707Z,1028.20
2019-05-14T00:17:52.261Z,1028.19
2019-05-14T00:18:51.724Z,1028.20
2019-05-14T00:20:05.847Z,1028.19
2019-05-14T00:20:51.597Z,1028.17
2019-05-14T00:21:51.632Z,1028.21
2019-05-14T00:22:52.199Z,1028.22
2019-05-14T00:23:51.564Z,1028.20
2019-05-14T00:24:52.121Z,1028.22
2019-05-14T00:25:52.275Z,1028.20
2019-05-14T00:26:51.791Z,1028.21
2019-05-14T00:27:51.875Z,1028.23
2019-05-14T00:28:51.407Z,1028.20
2019-05-14T00:30:52.439Z,1028.24
2019-05-14T00:31:51.835Z,1028.22
2019-05-14T00:32:52.080Z,1028.19
2019-05-14T00:33:51.451Z,1028.19
2019-05-14T00:34:56.378Z,1028.19
2019-05-14T00:35:51.591Z,1028.22
2019-05-14T00:37:52.105Z,1028.17
2019-05-14T00:38:51.520Z,1028.16
2019-05-14T00:39:52.038Z,1028.14
2019-05-14T00:41:51.375Z,1028.18
2019-05-14T00:42:53.308Z,1028.19
2019-05-14T00:43:51.501Z,1028.17
2019-05-14T00:44:57.500Z,1028.19
2019-05-14T00:45:51.301Z,1028.19
2019-05-14T00:46:51.608Z,1028.17
2019-05-14T00:47:52.514Z,1028.18
2019-05-14T00:48:51.565Z,1028.21
2019-05-14T00:49:51.749Z,1028.24
2019-05-14T00:50:51.657Z,1028.25
2019-05-14T00:51:51.902Z,1028.21
2019-05-14T00:52:51.796Z,1028.25
2019-05-14T00:53:51.571Z,1028.28
2019-05-14T00:57:52.228Z,1028.26
2019-05-14T00:58:52.116Z,1028.21
2019-05-14T00:59:52.127Z,1028.24
2019-05-14T01:00:52.508Z,1028.19
2019-05-14T01:01:51.703Z,1028.21
2019-05-14T01:02:51.762Z,1028.21
2019-05-14T01:03:52.153Z,1028.20
2019-05-14T01:05:52.152Z,1028.22
2019-05-14T01:06:51.241Z,1028.22
2019-05-14T01:07:51.450Z,1028.20
2019-05-14T01:08:51.871Z,1028.20
2019-05-14T01:09:52.389Z,1028.17
2019-05-14T01:11:51.307Z,1028.16
2019-05-14T01:12:52.029Z,1028.16
2019-05-14T01:18:51.367Z,1028.14
2019-05-14T01:19:51.328Z,1028.19
2019-05-14T01:20:51.932Z,1028.09
2019-05-14T01:21:51.066Z,1028.08
2019-05-14T01:22:51.575Z,1028.12
2019-05-14T01:23:51.400Z,1028.07
2019-05-14T01:24:52.285Z,1028.12
2019-05-14T01:25:51.633Z,1028.08
2019-05-14T01:27:51.791Z,1028.07
2019-05-14T01:28:51.342Z,1028.09
2019-05-14T01:29:51.371Z,1028.06
2019-05-14T01:30:51.923Z,1028.03
2019-05-14T01:31:51.967Z,1028.07
2019-05-14T01:32:51.326Z,1028.02
2019-05-14T01:33:51.556Z,1028.03
2019-05-14T01:34:51.975Z,1028.00
2019-05-14T01:36:49.829Z,1027.97
2019-05-14T01:37:52.211Z,1027.98
2019-05-14T01:39:51.773Z,1027.96
2019-05-14T01:40:52.489Z,1028.01
2019-05-14T01:41:51.658Z,1028.01
2019-05-14T01:42:52.044Z,1028.02
2019-05-14T01:43:51.260Z,1028.02
2019-05-14T01:44:51.970Z,1028.01
2019-05-14T01:45:49.612Z,1027.99
2019-05-14T01:46:51.262Z,1028.01
2019-05-14T01:47:51.905Z,1028.03
2019-05-14T01:48:49.460Z,1028.04
2019-05-14T01:49:51.473Z,1028.05
2019-05-14T01:50:51.811Z,1028.05
2019-05-14T01:51:51.159Z,1028.04
2019-05-14T01:52:51.842Z,1028.07
2019-05-14T01:54:51.438Z,1028.06
2019-05-14T01:55:51.802Z,1028.03
2019-05-14T01:56:51.522Z,1028.05
2019-05-14T01:57:51.554Z,1028.01
2019-05-14T01:58:49.314Z,1028.03
2019-05-14T01:59:51.474Z,1028.04
2019-05-14T02:00:49.179Z,1028.02
2019-05-14T02:01:51.536Z,1027.99
2019-05-14T02:02:49.501Z,1028.02
2019-05-14T02:03:51.623Z,1028.01
2019-05-14T02:04:51.321Z,1028.02
2019-05-14T02:05:49.055Z,1028.01
2019-05-14T02:06:51.355Z,1028.02
2019-05-14T02:07:49.008Z,1028.01
2019-05-14T02:08:51.297Z,1028.01
2019-05-14T02:09:51.614Z,1027.99
2019-05-14T02:11:48.998Z,1027.99
2019-05-14T02:12:51.353Z,1028.00
2019-05-14T02:13:49.087Z,1028.00
2019-05-14T02:14:51.081Z,1028.01
2019-05-14T02:15:48.898Z,1028.01
2019-05-14T02:16:51.099Z,1027.97
2019-05-14T02:17:48.773Z,1027.97
2019-05-14T02:18:48.750Z,1027.99
2019-05-14T02:19:48.725Z,1027.97
2019-05-14T02:20:48.702Z,1028.00
2019-05-14T02:21:51.263Z,1027.97
2019-05-14T02:22:48.658Z,1027.99
2019-05-14T02:23:51.252Z,1027.99
2019-05-14T02:24:48.696Z,1027.99
2019-05-14T02:25:48.588Z,1027.99
2019-05-14T02:26:48.648Z,1027.99
2019-05-14T02:27:48.763Z,1027.99
2019-05-14T02:28:48.509Z,1028.00
2019-05-14T02:29:48.589Z,1027.97
2019-05-14T02:30:57.641Z,1027.99
2019-05-14T02:31:50.457Z,1027.99
2019-05-14T02:32:49.815Z,1028.01
2019-05-14T02:33:50.374Z,1028.00
2019-05-14T02:34:50.028Z,1027.99
2019-05-14T02:35:49.320Z,1028.06
2019-05-14T02:36:49.626Z,1028.01
2019-05-14T02:37:50.511Z,1028.03
2019-05-14T02:38:49.350Z,1028.05
2019-05-14T02:39:50.163Z,1028.07
2019-05-14T02:40:49.385Z,1028.07
2019-05-14T02:41:49.870Z,1028.05
2019-05-14T02:42:49.815Z,1028.08
2019-05-14T02:43:50.375Z,1028.08
2019-05-14T02:44:48.956Z,1028.09
2019-05-14T02:46:02.000Z,1028.07
2019-05-14T02:46:50.582Z,1028.05
2019-05-14T02:47:50.300Z,1028.06
2019-05-14T02:48:49.141Z,1028.05
2019-05-14T02:49:50.188Z,1028.04
2019-05-14T02:50:49.456Z,1028.06
2019-05-14T02:51:50.450Z,1028.09
2019-05-14T02:52:49.643Z,1028.10
2019-05-14T02:53:49.824Z,1028.12
2019-05-14T02:54:49.614Z,1028.10
2019-05-14T02:55:49.755Z,1028.06
2019-05-14T02:56:49.521Z,1028.08
2019-05-14T02:57:50.109Z,1028.09
2019-05-14T02:58:49.920Z,1028.07
2019-05-14T02:59:50.174Z,1028.12
2019-05-14T03:00:49.174Z,1028.10
2019-05-14T03:01:50.200Z,1028.06
2019-05-14T03:02:49.488Z,1028.06
2019-05-14T03:04:49.904Z,1028.05
2019-05-14T03:05:49.534Z,1028.06
2019-05-14T03:06:49.828Z,1028.06
2019-05-14T03:07:50.015Z,1028.04
2019-05-14T03:08:49.372Z,1028.05
2019-05-14T03:10:50.416Z,1028.04
2019-05-14T03:14:49.831Z,1028.06
2019-05-14T03:16:49.452Z,1028.04
2019-05-14T03:17:49.407Z,1028.07
2019-05-14T03:18:50.143Z,1028.09
2019-05-14T03:19:49.631Z,1028.10
2019-05-14T03:20:50.184Z,1028.10
2019-05-14T03:21:50.175Z,1028.09
2019-05-14T03:23:49.680Z,1028.10
2019-05-14T03:24:49.982Z,1028.09
2019-05-14T03:25:49.330Z,1028.09
2019-05-14T03:26:49.952Z,1028.11
2019-05-14T03:27:49.648Z,1028.08
2019-05-14T03:28:49.607Z,1028.12
2019-05-14T03:29:49.547Z,1028.09
2019-05-14T03:30:52.022Z,1028.10
2019-05-14T03:31:52.665Z,1028.09
2019-05-14T03:33:52.162Z,1028.07
2019-05-14T03:34:52.216Z,1028.10
2019-05-14T03:35:52.013Z,1028.12
2019-05-14T03:36:52.901Z,1028.06
2019-05-14T03:37:49.579Z,1028.07
2019-05-14T03:38:49.962Z,1028.04
2019-05-14T03:39:49.346Z,1028.07
2019-05-14T03:40:49.440Z,1028.04
2019-05-14T03:42:49.058Z,1028.03
2019-05-14T03:43:49.423Z,1028.04
2019-05-14T03:44:49.050Z,1028.05
2019-05-14T03:45:49.285Z,1028.04
2019-05-14T03:46:54.714Z,1028.04
2019-05-14T03:47:50.114Z,1028.02
2019-05-14T03:49:49.559Z,1028.00
2019-05-14T03:50:49.539Z,1028.00
2019-05-14T03:51:49.452Z,1027.98
2019-05-14T03:52:49.583Z,1027.97
2019-05-14T03:54:00.703Z,1027.97
2019-05-14T03:54:49.560Z,1027.92
2019-05-14T03:55:49.995Z,1027.93
2019-05-14T03:56:49.358Z,1027.93
2019-05-14T03:58:49.249Z,1027.95
2019-05-14T03:59:49.615Z,1027.95
2019-05-14T04:03:46.366Z,1027.99
2019-05-14T04:04:50.053Z,1028.00
2019-05-14T04:05:49.352Z,1027.98
2019-05-14T04:06:49.357Z,1028.01
2019-05-14T04:07:49.879Z,1028.03
2019-05-14T04:08:49.500Z,1028.07
2019-05-14T04:09:49.369Z,1028.04
2019-05-14T04:10:53.015Z,1028.03
2019-05-14T04:11:46.273Z,1028.04
2019-05-14T04:12:48.887Z,1027.99
2019-05-14T04:13:49.401Z,1028.05
2019-05-14T04:14:46.103Z,1028.00
2019-05-14T04:17:01.607Z,1028.03
2019-05-14T04:17:49.837Z,1028.05
2019-05-14T04:18:45.948Z,1028.03
2019-05-14T04:19:49.251Z,1028.05
2019-05-14T04:20:49.769Z,1028.02
2019-05-14T04:21:48.857Z,1028.05
2019-05-14T04:23:45.818Z,1028.05
2019-05-14T04:24:49.359Z,1028.04
2019-05-14T04:25:45.768Z,1028.04
2019-05-14T04:27:49.110Z,1028.04
2019-05-14T04:28:45.905Z,1028.01
2019-05-14T04:29:45.911Z,1028.05
2019-05-14T04:30:49.093Z,1028.04
2019-05-14T04:31:45.623Z,1028.06
2019-05-14T04:32:45.654Z,1028.05
2019-05-14T04:33:45.566Z,1028.05
2019-05-14T04:34:45.547Z,1028.05
2019-05-14T04:36:45.818Z,1028.12
2019-05-14T04:42:45.711Z,1028.17
2019-05-14T04:43:45.333Z,1028.16
2019-05-14T04:44:45.308Z,1028.20
2019-05-14T04:45:45.203Z,1028.20
2019-05-14T04:46:45.302Z,1028.17
2019-05-14T04:47:45.385Z,1028.18
2019-05-14T04:48:45.458Z,1028.17
2019-05-14T04:49:45.509Z,1028.17
2019-05-14T04:50:45.185Z,1028.14
2019-05-14T04:51:45.161Z,1028.11
2019-05-14T04:54:45.398Z,1028.11
2019-05-14T04:55:45.489Z,1028.13
2019-05-14T04:59:44.971Z,1028.20
2019-05-14T05:00:45.097Z,1028.18
2019-05-14T05:01:44.829Z,1028.19
2019-05-14T05:02:44.906Z,1028.19
2019-05-14T05:03:45.405Z,1028.20
2019-05-14T05:04:44.870Z,1028.17
2019-05-14T05:05:44.845Z,1028.19
2019-05-14T05:06:44.990Z,1028.19
2019-05-14T05:07:44.802Z,1028.14
2019-05-14T05:08:44.774Z,1028.18
2019-05-14T05:09:45.745Z,1028.14
2019-05-14T05:10:45.029Z,1028.20
2019-05-14T05:12:44.716Z,1028.21
2019-05-14T05:13:44.637Z,1028.26
2019-05-14T05:14:44.524Z,1028.29
2019-05-14T05:15:44.595Z,1028.27
2019-05-14T05:16:44.593Z,1028.30
2019-05-14T05:18:44.830Z,1028.35
2019-05-14T05:19:45.944Z,1028.35
2019-05-14T05:20:44.396Z,1028.33
2019-05-14T05:21:44.379Z,1028.36
2019-05-14T05:22:44.360Z,1028.35
2019-05-14T05:23:44.340Z,1028.29
2019-05-14T05:24:44.345Z,1028.34
2019-05-14T05:29:00.067Z,1028.40
2019-05-14T05:33:44.351Z,1028.38
2019-05-14T05:35:49.235Z,1028.37
2019-05-14T05:36:44.273Z,1028.35
2019-05-14T05:37:44.572Z,1028.38
2019-05-14T05:38:44.020Z,1028.36
2019-05-14T05:39:43.969Z,1028.40
2019-05-14T05:40:43.962Z,1028.36
2019-05-14T05:41:44.006Z,1028.35
2019-05-14T05:42:44.262Z,1028.33
2019-05-14T05:44:44.329Z,1028.33
2019-05-14T05:45:43.896Z,1028.36
2019-05-14T05:47:57.114Z,1028.37
2019-05-14T05:48:43.955Z,1028.34
2019-05-14T05:49:44.103Z,1028.35
2019-05-14T05:51:43.901Z,1028.35
2019-05-14T05:58:43.671Z,1028.29
2019-05-14T06:01:46.472Z,1028.35
2019-05-14T06:02:43.921Z,1028.30
2019-05-14T06:12:43.492Z,1028.37
2019-05-14T06:14:43.653Z,1028.38
2019-05-14T06:15:48.255Z,1028.34
2019-05-14T06:16:43.189Z,1028.38
2019-05-14T06:17:43.156Z,1028.34
2019-05-14T06:22:43.249Z,1028.41
2019-05-14T06:23:44.115Z,1028.42
2019-05-14T06:24:43.422Z,1028.41
2019-05-14T06:25:43.456Z,1028.40
2019-05-14T06:26:43.670Z,1028.39
2019-05-14T06:27:43.377Z,1028.42
2019-05-14T06:32:42.882Z,1028.42
2019-05-14T06:33:44.493Z,1028.42
2019-05-14T06:34:42.810Z,1028.39
2019-05-14T06:35:43.201Z,1028.36
2019-05-14T06:36:42.844Z,1028.42
2019-05-14T06:37:45.122Z,1028.38
2019-05-14T06:38:42.832Z,1028.43
2019-05-14T06:40:42.700Z,1028.44
2019-05-14T06:42:43.053Z,1028.41
2019-05-14T06:43:42.922Z,1028.40
2019-05-14T06:44:42.681Z,1028.38
2019-05-14T06:45:43.797Z,1028.40
2019-05-14T06:46:43.590Z,1028.45
2019-05-14T06:47:44.853Z,1028.45
2019-05-14T06:48:43.571Z,1028.46
2019-05-14T06:49:44.031Z,1028.41
2019-05-14T06:50:42.866Z,1028.42
2019-05-14T06:57:43.183Z,1028.50
2019-05-14T06:59:42.325Z,1028.46
2019-05-14T07:00:42.385Z,1028.50
2019-05-14T07:02:44.228Z,1028.47
2019-05-14T07:03:42.354Z,1028.53
2019-05-14T07:04:42.265Z,1028.54
2019-05-14T07:05:42.284Z,1028.53
2019-05-14T07:06:42.176Z,1028.55
2019-05-14T07:07:44.021Z,1028.54
2019-05-14T07:08:42.632Z,1028.53
2019-05-14T07:09:42.213Z,1028.51
2019-05-14T07:10:42.201Z,1028.56
2019-05-14T07:11:42.191Z,1028.56
2019-05-14T07:12:42.162Z,1028.51
2019-05-14T07:13:42.158Z,1028.50
2019-05-14T07:14:42.661Z,1028.52
2019-05-14T07:15:42.193Z,1028.54
2019-05-14T07:16:42.102Z,1028.51
2019-05-14T07:17:42.073Z,1028.54
2019-05-14T07:18:48.742Z,1028.55
2019-05-14T07:19:41.934Z,1028.61
2019-05-14T07:20:42.676Z,1028.69
2019-05-14T07:21:41.906Z,1028.74
2019-05-14T07:22:41.893Z,1028.72
2019-05-14T07:23:41.947Z,1028.75
2019-05-14T07:24:41.850Z,1028.79
2019-05-14T07:25:41.918Z,1028.91
2019-05-14T07:26:42.380Z,1028.91
2019-05-14T07:27:41.931Z,1029.01
2019-05-14T07:29:41.749Z,1029.13
2019-05-14T07:30:41.847Z,1029.22
2019-05-14T07:31:41.710Z,1029.20
2019-05-14T07:32:42.321Z,1029.42
2019-05-14T07:33:41.841Z,1030.61
2019-05-14T07:34:41.668Z,1031.66
2019-05-14T07:41:42.441Z,1033.31
2019-05-14T07:42:41.676Z,1033.73
2019-05-14T07:43:41.667Z,1033.77
2019-05-14T07:45:41.662Z,1033.44
2019-05-14T07:46:41.604Z,1034.14
2019-05-14T07:51:41.959Z,1034.78
2019-05-14T07:52:45.591Z,1035.22
2019-05-14T07:54:41.901Z,1035.71
2019-05-14T07:55:41.364Z,1035.79
2019-05-14T07:56:41.856Z,1035.07
2019-05-14T07:57:41.452Z,1032.99
2019-05-14T07:58:41.508Z,1030.88
2019-05-14T07:59:41.516Z,1031.76
2019-05-14T08:00:41.561Z,1033.23
2019-05-14T08:01:41.838Z,1034.60
2019-05-14T08:02:41.388Z,1035.72
2019-05-14T08:04:41.801Z,1036.65
2019-05-14T08:05:41.312Z,1036.44
2019-05-14T08:06:41.342Z,1035.94
2019-05-14T08:11:41.574Z,1035.99
2019-05-14T08:13:42.694Z,1035.72
2019-05-14T08:14:55.732Z,1035.47
2019-05-14T08:16:41.191Z,1033.26
2019-05-14T08:17:41.092Z,1035.37
2019-05-14T08:18:41.446Z,1035.69
2019-05-14T08:19:41.511Z,1029.18
2019-05-14T08:20:41.224Z,1028.72
2019-05-14T08:21:41.208Z,1034.83
2019-05-14T08:25:41.361Z,1034.13
2019-05-14T08:27:41.033Z,1034.11
2019-05-14T08:28:40.968Z,1033.79
2019-05-14T08:29:41.053Z,1033.49
2019-05-14T08:31:41.358Z,1033.17
2019-05-14T08:33:40.930Z,1033.15
2019-05-14T08:35:40.905Z,1032.89
2019-05-14T08:38:45.383Z,1032.61
2019-05-14T08:39:40.963Z,1032.36
2019-05-14T08:40:40.944Z,1032.20
2019-05-14T08:41:40.849Z,1032.00
2019-05-14T08:44:41.330Z,1031.45
2019-05-14T08:45:40.920Z,1031.25
2019-05-14T08:46:40.885Z,1031.15
2019-05-14T08:47:40.924Z,1031.10
2019-05-14T08:48:40.871Z,1031.07
2019-05-14T08:49:46.204Z,1030.93
2019-05-14T08:50:40.910Z,1030.79
2019-05-14T08:51:40.952Z,1030.69
2019-05-14T08:52:41.026Z,1030.71
2019-05-14T08:53:40.890Z,1030.69
2019-05-14T08:54:41.268Z,1030.64
2019-05-14T08:55:41.002Z,1030.60
2019-05-14T08:56:41.218Z,1030.55
2019-05-14T08:57:41.330Z,1030.50
2019-05-14T08:59:41.062Z,1030.43
2019-05-14T09:05:41.732Z,1030.30
2019-05-14T09:06:40.897Z,1030.22
2019-05-14T09:07:40.913Z,1030.29
2019-05-14T09:08:40.728Z,1030.31
2019-05-14T09:09:40.874Z,1030.31
2019-05-14T09:10:41.447Z,1030.25
2019-05-14T09:11:44.937Z,1030.24
2019-05-14T09:12:40.896Z,1030.28
2019-05-14T09:13:40.704Z,1030.24
2019-05-14T09:15:41.397Z,1030.32
2019-05-14T09:16:46.788Z,1030.42
2019-05-14T09:17:41.183Z,1030.48
2019-05-14T09:18:41.381Z,1030.48
2019-05-14T09:19:57.270Z,1030.45
2019-05-14T09:20:42.443Z,1030.47
2019-05-14T09:21:42.479Z,1030.55
2019-05-14T09:22:40.675Z,1030.57
2019-05-14T09:23:40.571Z,1030.73
2019-05-14T09:27:40.630Z,1031.14
2019-05-14T09:29:42.771Z,1031.53
2019-05-14T09:30:40.599Z,1029.22
2019-05-14T09:33:41.140Z,1028.23
2019-05-14T09:35:40.811Z,1027.97
2019-05-14T09:36:40.569Z,1028.36
2019-05-14T09:37:40.509Z,1031.64
2019-05-14T09:40:41.391Z,1031.70
2019-05-14T09:41:41.865Z,1032.07
2019-05-14T09:42:40.542Z,1032.33
2019-05-14T09:43:40.543Z,1032.55
2019-05-14T09:44:40.476Z,1027.97
2019-05-14T09:45:40.871Z,1032.73
2019-05-14T09:46:40.904Z,1032.88
2019-05-14T09:47:40.675Z,1032.77
2019-05-14T09:48:40.407Z,1032.80
2019-05-14T09:49:40.383Z,1032.92
2019-05-14T09:50:41.294Z,1033.02
2019-05-14T09:51:40.370Z,1033.34
2019-05-14T09:52:40.443Z,1028.43
2019-05-14T09:53:41.082Z,1031.02
2019-05-14T09:54:43.936Z,1033.03
2019-05-14T09:55:40.488Z,1033.04
2019-05-14T09:56:41.403Z,1032.57
2019-05-14T09:57:40.412Z,1032.18
2019-05-14T09:58:40.429Z,1032.34
2019-05-14T09:59:40.454Z,1033.08
2019-05-14T10:00:40.714Z,1033.28
2019-05-14T10:01:40.311Z,1033.09
2019-05-14T10:02:40.333Z,1033.15
2019-05-14T10:03:40.416Z,1033.23
2019-05-14T10:05:40.559Z,1032.78
2019-05-14T10:06:40.460Z,1030.67
2019-05-14T10:07:40.983Z,1032.61
2019-05-14T10:11:41.595Z,1032.83
2019-05-14T10:12:51.774Z,1032.75
2019-05-14T10:13:41.096Z,1032.63
2019-05-14T10:14:40.513Z,1032.40
2019-05-14T10:15:40.480Z,1032.27
2019-05-14T10:16:40.762Z,1031.14
2019-05-14T10:18:40.870Z,1027.93
2019-05-14T10:20:45.361Z,1027.79
2019-05-14T10:22:40.273Z,1027.68
2019-05-14T10:23:40.578Z,1027.63
2019-05-14T10:25:42.376Z,1027.52
2019-05-14T10:26:40.377Z,1027.54
2019-05-14T10:28:43.404Z,1029.55
2019-05-14T10:32:42.059Z,1027.65
2019-05-14T10:34:40.570Z,1027.59
2019-05-14T10:35:40.278Z,1027.58
2019-05-14T10:36:40.816Z,1027.59
2019-05-14T10:39:40.203Z,1027.48
2019-05-14T10:41:40.545Z,1027.50
2019-05-14T10:43:40.301Z,1028.22
2019-05-14T10:44:40.323Z,1028.21
2019-05-14T10:45:40.473Z,1028.28
2019-05-14T10:47:41.181Z,1028.32
2019-05-14T10:49:40.972Z,1028.55
2019-05-14T10:50:55.726Z,1027.52
2019-05-14T10:51:41.511Z,1027.48
2019-05-14T10:52:40.145Z,1028.60
2019-05-14T10:54:54.954Z,1028.80
2019-05-14T10:55:40.271Z,1028.78
2019-05-14T10:56:40.254Z,1028.66
2019-05-14T10:58:40.253Z,1028.58
2019-05-14T10:59:40.107Z,1028.69
2019-05-14T11:01:40.307Z,1028.57
2019-05-14T11:02:40.013Z,1028.62
2019-05-14T11:03:40.123Z,1028.63
2019-05-14T11:05:41.752Z,1027.41
2019-05-14T11:06:40.073Z,1027.40
2019-05-14T11:07:41.768Z,1027.34
2019-05-14T11:09:40.064Z,1027.31
2019-05-14T11:12:40.080Z,1028.42
2019-05-14T11:13:40.402Z,1028.23
2019-05-14T11:14:40.279Z,1027.40
2019-05-14T11:16:41.952Z,1027.35
2019-05-14T11:17:40.713Z,1027.21
2019-05-14T11:18:40.259Z,1027.27
2019-05-14T11:20:43.585Z,1027.52
2019-05-14T11:21:43.293Z,1027.07
2019-05-14T11:22:44.183Z,1027.01
2019-05-14T11:23:40.323Z,1027.03
2019-05-14T11:24:41.361Z,1027.03
2019-05-14T11:25:42.593Z,1026.98
2019-05-14T11:26:39.920Z,1026.99
2019-05-14T11:27:39.911Z,1026.95
2019-05-14T11:31:39.986Z,1028.29
2019-05-14T11:32:40.203Z,1028.39
2019-05-14T11:34:40.059Z,1027.14
2019-05-14T11:35:40.194Z,1027.09
2019-05-14T11:36:40.051Z,1027.21
2019-05-14T11:37:41.387Z,1027.21
2019-05-14T11:38:40.045Z,1027.18
2019-05-14T11:39:40.217Z,1027.16
2019-05-14T11:40:39.884Z,1027.23
2019-05-14T11:44:39.949Z,1026.92
2019-05-14T11:45:40.004Z,1026.88
2019-05-14T11:47:40.103Z,1027.95
2019-05-14T11:49:40.351Z,1028.05
2019-05-14T11:51:59.287Z,1028.07
2019-05-14T11:52:39.697Z,1027.97
2019-05-14T11:53:39.659Z,1027.89
2019-05-14T11:54:41.096Z,1027.75
2019-05-14T11:56:41.789Z,1027.59
2019-05-14T11:57:39.728Z,1027.55
2019-05-14T12:01:39.614Z,1026.99
2019-05-14T12:02:39.731Z,1026.82
2019-05-14T12:03:40.030Z,1026.72
2019-05-14T12:04:39.707Z,1027.40
2019-05-14T12:05:39.690Z,1026.91
2019-05-14T12:06:39.594Z,1027.48
2019-05-14T12:07:39.876Z,1026.88
2019-05-14T12:08:41.941Z,1026.81
2019-05-14T12:09:39.981Z,1026.78
2019-05-14T12:10:39.714Z,1026.76
2019-05-14T12:11:39.578Z,1026.64
2019-05-14T12:12:40.396Z,1026.69
2019-05-14T12:13:39.728Z,1026.73
2019-05-14T12:15:41.327Z,1026.59
2019-05-14T12:16:41.352Z,1026.59
2019-05-14T12:17:39.750Z,1026.58
2019-05-14T12:18:41.661Z,1026.59
2019-05-14T12:19:43.345Z,1026.61
2019-05-14T12:22:39.720Z,1027.07
2019-05-14T12:23:39.523Z,1027.00
2019-05-14T12:24:39.642Z,1027.06
2019-05-14T12:25:39.527Z,1026.96
2019-05-14T12:26:39.477Z,1026.99
2019-05-14T12:29:40.127Z,1027.00
2019-05-14T12:30:39.792Z,1027.01
2019-05-14T12:31:39.722Z,1027.02
2019-05-14T12:33:40.003Z,1026.48
2019-05-14T12:34:39.661Z,1026.46
2019-05-14T12:35:40.578Z,1027.01
2019-05-14T12:36:39.851Z,1026.38
2019-05-14T12:39:39.519Z,1026.33
2019-05-14T12:41:39.653Z,1026.36
2019-05-14T12:42:39.678Z,1026.37
2019-05-14T12:44:40.961Z,1026.34
2019-05-14T12:46:44.984Z,1026.15
2019-05-14T12:47:39.748Z,1026.18
2019-05-14T12:48:39.661Z,1026.69
2019-05-14T12:49:40.369Z,1026.71
2019-05-14T12:50:39.530Z,1026.66
2019-05-14T12:51:42.516Z,1026.71
2019-05-14T12:53:40.713Z,1026.28
2019-05-14T12:58:45.305Z,1026.07
2019-05-14T13:05:39.715Z,1026.41
2019-05-14T13:06:40.098Z,1026.39
2019-05-14T13:07:41.791Z,1026.36
2019-05-14T13:08:39.335Z,1026.30
2019-05-14T13:09:39.453Z,1026.41
2019-05-14T13:11:41.642Z,1026.38
2019-05-14T13:12:39.455Z,1026.41
2019-05-14T13:13:42.874Z,1026.32
2019-05-14T13:15:39.522Z,1026.21
2019-05-14T13:19:40.990Z,1026.21
2019-05-14T13:20:39.925Z,1026.13
2019-05-14T13:22:45.656Z,1026.16
2019-05-14T13:23:39.204Z,1025.65
2019-05-14T13:25:39.770Z,1026.27
2019-05-14T13:27:39.375Z,1025.70
2019-05-14T13:28:40.073Z,1025.69
2019-05-14T13:29:39.236Z,1025.65
2019-05-14T13:31:39.710Z,1026.20
2019-05-14T13:32:39.988Z,1026.08
2019-05-14T13:34:39.705Z,1026.02
2019-05-14T13:37:39.936Z,1026.06
2019-05-14T13:38:39.738Z,1025.99
2019-05-14T13:39:39.907Z,1025.99
2019-05-14T13:40:40.779Z,1026.01
2019-05-14T13:41:41.953Z,1025.95
2019-05-14T13:42:40.835Z,1025.95
2019-05-14T13:43:40.245Z,1025.97
2019-05-14T13:45:39.375Z,1025.92
2019-05-14T13:46:48.689Z,1025.99
2019-05-14T13:54:40.338Z,1025.87
2019-05-14T13:57:39.995Z,1025.92
2019-05-14T13:58:39.343Z,1025.32
2019-05-14T14:01:39.299Z,1025.67
2019-05-14T14:02:38.939Z,1025.91
2019-05-14T14:04:39.096Z,1025.22
2019-05-14T14:05:39.443Z,1025.29
2019-05-14T14:06:39.448Z,1025.85
2019-05-14T14:07:40.188Z,1025.88
2019-05-14T14:09:39.731Z,1025.81
2019-05-14T14:11:39.027Z,1025.88
2019-05-14T14:17:39.757Z,1025.31
2019-05-14T14:18:39.633Z,1025.25
2019-05-14T14:19:39.047Z,1025.24
2019-05-14T14:26:39.579Z,1025.68
2019-05-14T14:29:39.680Z,1025.63
2019-05-14T14:30:39.474Z,1025.51
2019-05-14T14:31:41.566Z,1025.56
2019-05-14T14:32:40.954Z,1025.63
2019-05-14T14:33:39.735Z,1025.67
2019-05-14T14:35:38.953Z,1025.61
2019-05-14T14:37:39.786Z,1025.61
2019-05-14T14:38:40.173Z,1025.48
2019-05-14T14:39:38.894Z,1024.90
2019-05-14T14:41:40.124Z,1024.86
2019-05-14T14:42:39.967Z,1024.83
2019-05-14T14:44:39.385Z,1024.83
2019-05-14T14:45:44.655Z,1024.84
2019-05-14T14:50:39.199Z,1025.42
2019-05-14T14:52:40.178Z,1025.36
2019-05-14T14:53:52.508Z,1025.38
2019-05-14T14:54:38.643Z,1025.35
2019-05-14T14:55:39.967Z,1025.37
2019-05-14T14:57:45.116Z,1025.11
2019-05-14T14:58:45.961Z,1024.74
2019-05-14T14:59:39.218Z,1024.77
2019-05-14T15:00:38.806Z,1024.83
2019-05-14T15:01:40.177Z,1024.80
2019-05-14T15:02:41.276Z,1024.71
2019-05-14T15:04:39.786Z,1024.73
2019-05-14T15:05:39.098Z,1024.72
2019-05-14T15:06:39.977Z,1024.66
2019-05-14T15:07:40.821Z,1024.77
2019-05-14T15:09:40.456Z,1024.58
2019-05-14T15:10:39.636Z,1024.58
2019-05-14T15:11:39.603Z,1024.58
2019-05-14T15:13:39.018Z,1025.00
2019-05-14T15:14:39.553Z,1025.05
2019-05-14T15:15:39.456Z,1024.99
2019-05-14T15:22:38.539Z,1025.06
2019-05-14T15:23:42.557Z,1025.09
2019-05-14T15:24:38.393Z,1025.10
2019-05-14T15:25:39.008Z,1025.03
2019-05-14T15:26:38.493Z,1025.02
2019-05-14T15:27:38.809Z,1025.00
2019-05-14T15:29:39.099Z,1024.98
2019-05-14T15:31:38.735Z,1024.94
2019-05-14T15:33:38.310Z,1024.91
2019-05-14T15:34:38.452Z,1024.92
2019-05-14T15:35:38.403Z,1024.91
2019-05-14T15:37:42.640Z,1024.90
2019-05-14T15:41:39.319Z,1024.93
2019-05-14T15:42:39.484Z,1024.96
2019-05-14T15:43:39.553Z,1024.89
2019-05-14T15:44:48.985Z,1024.94
2019-05-14T15:45:38.307Z,1024.97
2019-05-14T15:48:39.489Z,1024.52
2019-05-14T15:49:38.934Z,1024.57
2019-05-14T15:50:38.954Z,1024.75
2019-05-14T15:52:39.506Z,1024.39
2019-05-14T15:53:38.729Z,1024.59
2019-05-14T15:56:39.500Z,1024.35
2019-05-14T15:59:39.186Z,1024.33
2019-05-14T16:04:38.994Z,1024.60
2019-05-14T16:05:39.418Z,1024.63
2019-05-14T16:07:40.871Z,1024.57
2019-05-14T16:17:47.811Z,1024.49
2019-05-14T16:18:38.557Z,1024.54
2019-05-14T16:19:39.223Z,1024.57
2019-05-14T16:24:53.026Z,1024.47
2019-05-14T16:26:38.070Z,1024.47
2019-05-14T16:28:39.394Z,1024.46
2019-05-14T16:29:45.149Z,1024.43
2019-05-14T16:30:39.675Z,1024.43
2019-05-14T16:32:39.403Z,1024.44
2019-05-14T16:33:40.410Z,1024.37
2019-05-14T16:34:40.948Z,1024.39
2019-05-14T16:35:39.265Z,1024.39
2019-05-14T16:36:41.230Z,1024.32
2019-05-14T16:40:39.569Z,1024.35
2019-05-14T16:41:38.959Z,1024.33
2019-05-14T16:42:39.629Z,1024.30
2019-05-14T16:43:40.004Z,1024.23
2019-05-14T16:44:39.119Z,1024.05
2019-05-14T16:45:39.644Z,1024.07
2019-05-14T16:46:38.518Z,1024.29
2019-05-14T16:47:39.839Z,1024.31
2019-05-14T16:50:37.770Z,1024.10
2019-05-14T17:01:38.048Z,1024.17
2019-05-14T17:02:37.918Z,1024.18
2019-05-14T17:06:38.537Z,1024.17
2019-05-14T17:07:38.590Z,1024.18
2019-05-14T17:09:38.494Z,1024.19
2019-05-14T17:10:38.797Z,1024.19
2019-05-14T17:12:49.565Z,1024.19
2019-05-14T17:14:38.901Z,1024.00
2019-05-14T17:16:37.825Z,1024.01
2019-05-14T17:19:38.612Z,1024.03
2019-05-14T17:26:38.156Z,1024.12
2019-05-14T17:27:39.502Z,1024.12
2019-05-14T17:30:38.570Z,1024.13
2019-05-14T17:32:39.117Z,1024.11
2019-05-14T17:36:38.918Z,1024.05
2019-05-14T17:37:39.458Z,1024.02
2019-05-14T17:40:39.618Z,1024.01
2019-05-14T17:41:41.603Z,1024.00
2019-05-14T17:43:39.411Z,1024.01
2019-05-14T17:44:38.825Z,1023.95
2019-05-14T17:46:39.412Z,1023.97
2019-05-14T17:47:38.877Z,1023.95